Time;durP1;ratioP1;P1;durP2;ratioP2;P2;SDS_P1;SDS_P2;PMS_P1;PMS_P2;Temp;Humidity;BMP_temperature;BMP_pressure;BME280_temperature;BME280_humidity;BME280_pressure;Samples;Min_cycle;Max_cycle;Signal;HPM_P1;HPM_P2
2023/10/22 00:10:39;;;;;;;;;;;;;;;;;;;;;
2023/10/22 00:13:33;;;;;;;0.60;0.60;;;;;;;;;;7432746;19;20360;-87
2023/10/22 00:16:38;;;;;;;0.30;0.30;;;;;;;;;;7412100;19;20951;-88
2023/10/22 00:19:23;;;;;;;1.60;0.70;;;;;;;;;;7401218;19;20356;-88
2023/10/22 00:22:24;;;;;;;0.30;0.30;;;;;;;;;;7399311;19;20360;-88
2023/10/22 00:24:52;;;;;;;0.30;0.30;;;;;;;;;;7399338;19;20360;-88
2023/10/22 00:31:13;;;;;;;0.20;0.20;;;;;;;;;;7398702;19;20367;-87
2023/10/22 00:33:51;;;;;;;0.30;0.30;;;;;;;;;;7400981;19;20364;-88
2023/10/22 00:36:33;;;;;;;0.20;0.20;;;;;;;;;;7398744;19;20352;-88
2023/10/22 00:39:01;;;;;;;0.30;0.30;;;;;;;;;;7402417;19;20332;-88
2023/10/22 00:41:28;;;;;;;0.40;0.40;;;;;;;;;;7398443;19;20348;-88
2023/10/22 00:43:55;;;;;;;0.40;0.40;;;;;;;;;;7410248;19;20396;-87
2023/10/22 00:46:23;;;;;;;0.30;0.30;;;;;;;;;;7419382;19;20383;-88
2023/10/22 00:48:51;;;;;;;0.30;0.30;;;;;;;;;;7423481;19;20360;-88
2023/10/22 00:51:35;;;;;;;0.30;0.30;;;;;;;;;;7425927;19;20381;-88
2023/10/22 00:54:47;;;;;;;0.20;0.20;;;;;;;;;;7423946;19;20349;-88
2023/10/22 00:57:27;;;;;;;0.32;0.32;;;;;;;;;;7424754;19;20360;-88
2023/10/22 00:59:59;;;;;;;0.30;0.30;;;;;;;;;;7425579;19;20353;-89
2023/10/22 01:02:26;;;;;;;0.40;0.40;;;;;;;;;;7419929;19;20345;-90
2023/10/22 01:12:20;;;;;;;0.40;0.40;;;;;;;;;;7422093;19;20360;-91
2023/10/22 01:22:16;;;;;;;0.60;0.60;;;;;;;;;;7423411;19;20397;-89
2023/10/22 01:29:16;;;;;;;1.90;0.40;;;;;;;;;;7417335;19;20370;-89
2023/10/22 01:32:06;;;;;;;;;;;;;;;;;;;;;
2023/10/22 01:35:04;;;;;;;0.40;0.40;;;;;;;;;;7403493;19;20362;-88
2023/10/22 01:37:43;;;;;;;0.30;0.30;;;;;;;;;;7399274;19;20352;-88
2023/10/22 01:40:13;;;;;;;0.38;0.38;;;;;;;;;;7399894;19;20345;-89
2023/10/22 01:42:44;;;;;;;0.32;0.32;;;;;;;;;;7398545;19;20884;-87
2023/10/22 01:45:12;;;;;;;0.30;0.30;;;;;;;;;;7397920;19;20364;-87
2023/10/22 01:47:39;;;;;;;0.38;0.38;;;;;;;;;;7398021;19;20340;-87
2023/10/22 01:50:06;;;;;;;0.30;0.30;;;;;;;;;;7398177;19;20349;-87
2023/10/22 01:52:35;;;;;;;0.30;0.30;;;;;;;;;;7399728;19;20355;-88
2023/10/22 01:55:06;;;;;;;0.30;0.30;;;;;;;;;;7398513;19;20341;-88
2023/10/22 01:57:40;;;;;;;0.30;0.30;;;;;;;;;;7393333;19;20750;-88
2023/10/22 02:00:39;;;;;;;0.30;0.30;;;;;;;;;;7394434;19;20340;-87
2023/10/22 02:03:23;;;;;;;0.20;0.20;;;;;;;;;;7396868;19;20356;-88
2023/10/22 02:05:50;;;;;;;0.35;0.35;;;;;;;;;;7393537;19;20364;-88
2023/10/22 02:08:19;;;;;;;0.30;0.30;;;;;;;;;;7391776;19;20344;-88
2023/10/22 02:10:47;;;;;;;0.60;0.60;;;;;;;;;;7395419;19;20360;-88
2023/10/22 02:13:17;;;;;;;0.30;0.30;;;;;;;;;;7396651;19;20365;-88
2023/10/22 02:15:44;;;;;;;0.25;0.25;;;;;;;;;;7391313;19;20368;-87
2023/10/22 02:18:11;;;;;;;0.30;0.30;;;;;;;;;;7392780;19;20401;-88
2023/10/22 02:20:38;;;;;;;0.30;0.30;;;;;;;;;;7392674;19;20378;-87
2023/10/22 02:23:05;;;;;;;0.28;0.28;;;;;;;;;;7395116;19;20351;-88
2023/10/22 02:25:32;;;;;;;0.60;0.40;;;;;;;;;;7394206;19;20333;-88
2023/10/22 02:27:59;;;;;;;0.30;0.30;;;;;;;;;;7395773;19;20351;-88
2023/10/22 02:30:27;;;;;;;0.30;0.30;;;;;;;;;;7394052;19;20348;-89
2023/10/22 02:32:53;;;;;;;0.30;0.30;;;;;;;;;;7391048;19;20345;-88
2023/10/22 02:35:21;;;;;;;0.20;0.20;;;;;;;;;;7392960;19;20345;-88
2023/10/22 02:37:48;;;;;;;0.43;0.43;;;;;;;;;;7394178;19;20379;-88
2023/10/22 02:40:38;;;;;;;0.23;0.23;;;;;;;;;;7395748;19;20345;-88
2023/10/22 02:43:11;;;;;;;0.40;0.40;;;;;;;;;;7395915;19;20379;-87
2023/10/22 02:45:50;;;;;;;0.30;0.30;;;;;;;;;;7394362;19;20364;-88
2023/10/22 02:48:27;;;;;;;0.40;0.40;;;;;;;;;;7392038;19;20700;-88
2023/10/22 02:51:03;;;;;;;0.30;0.30;;;;;;;;;;7396758;19;20379;-88
2023/10/22 02:53:30;;;;;;;0.30;0.30;;;;;;;;;;7392810;19;20360;-88
2023/10/22 02:56:03;;;;;;;0.30;0.30;;;;;;;;;;7389795;19;20352;-87
2023/10/22 02:58:40;;;;;;;0.38;0.38;;;;;;;;;;7395616;19;20352;-87
2023/10/22 03:01:09;;;;;;;0.40;0.40;;;;;;;;;;7395518;19;20638;-88
2023/10/22 03:03:39;;;;;;;0.20;0.20;;;;;;;;;;7395132;19;20356;-87
2023/10/22 03:06:10;;;;;;;0.30;0.30;;;;;;;;;;7394973;19;20717;-87
2023/10/22 03:08:40;;;;;;;0.30;0.30;;;;;;;;;;7393642;19;20387;-87
2023/10/22 03:11:15;;;;;;;0.40;0.40;;;;;;;;;;7394094;19;20356;-87
2023/10/22 03:13:43;;;;;;;0.30;0.30;;;;;;;;;;7388242;19;20360;-87
2023/10/22 03:16:12;;;;;;;0.30;0.30;;;;;;;;;;7388121;19;20445;-88
2023/10/22 03:18:40;;;;;;;0.30;0.30;;;;;;;;;;7389967;19;20705;-87
2023/10/22 03:21:14;;;;;;;0.50;0.50;;;;;;;;;;7393074;19;20582;-87
2023/10/22 03:23:42;;;;;;;0.30;0.30;;;;;;;;;;7391445;19;20377;-87
2023/10/22 03:27:15;;;;;;;0.30;0.30;;;;;;;;;;7389721;19;20436;-86
2023/10/22 03:29:59;;;;;;;0.32;0.32;;;;;;;;;;7387191;19;20697;-86
2023/10/22 03:32:29;;;;;;;0.22;0.22;;;;;;;;;;7389903;19;20350;-86
2023/10/22 03:34:57;;;;;;;0.37;0.37;;;;;;;;;;7394166;19;20369;-87
2023/10/22 03:38:17;;;;;;;0.30;0.30;;;;;;;;;;7394242;19;20336;-87
2023/10/22 03:41:14;;;;;;;0.40;0.40;;;;;;;;;;7393337;19;20674;-87
2023/10/22 03:46:41;;;;;;;0.30;0.30;;;;;;;;;;7391772;19;20348;-88
2023/10/22 03:49:11;;;;;;;0.30;0.30;;;;;;;;;;7394101;19;20345;-88
2023/10/22 03:51:52;;;;;;;0.40;0.40;;;;;;;;;;7394837;19;20364;-86
2023/10/22 03:54:20;;;;;;;0.30;0.30;;;;;;;;;;7401381;19;20343;-88
2023/10/22 03:56:47;;;;;;;0.47;0.47;;;;;;;;;;7403010;19;20360;-87
2023/10/22 03:59:14;;;;;;;0.30;0.30;;;;;;;;;;7397828;19;20389;-88
2023/10/22 04:01:41;;;;;;;0.40;0.40;;;;;;;;;;7397113;19;20340;-88
2023/10/22 04:04:08;;;;;;;0.40;0.40;;;;;;;;;;7394317;19;20341;-88
2023/10/22 04:06:35;;;;;;;0.40;0.40;;;;;;;;;;7403286;19;20328;-88
2023/10/22 04:09:02;;;;;;;0.30;0.30;;;;;;;;;;7403543;19;20357;-88
2023/10/22 04:11:29;;;;;;;0.90;0.40;;;;;;;;;;7402650;19;20996;-88
2023/10/22 04:13:56;;;;;;;0.30;0.30;;;;;;;;;;7404107;19;20396;-88
2023/10/22 04:16:23;;;;;;;0.30;0.30;;;;;;;;;;7401086;19;20374;-89
2023/10/22 04:18:49;;;;;;;0.30;0.30;;;;;;;;;;7403691;19;20356;-87
2023/10/22 04:21:16;;;;;;;0.40;0.40;;;;;;;;;;7403382;19;20368;-87
2023/10/22 04:23:43;;;;;;;0.20;0.20;;;;;;;;;;7404432;19;20366;-87
2023/10/22 04:26:14;;;;;;;0.30;0.30;;;;;;;;;;7401517;19;20691;-88
2023/10/22 04:28:42;;;;;;;0.30;0.30;;;;;;;;;;7403755;19;20799;-88
2023/10/22 04:31:09;;;;;;;0.20;0.20;;;;;;;;;;7403978;19;20372;-88
2023/10/22 04:33:36;;;;;;;0.40;0.40;;;;;;;;;;7404626;19;20652;-88
2023/10/22 04:36:15;;;;;;;0.40;0.40;;;;;;;;;;7404220;19;20344;-88
2023/10/22 04:38:42;;;;;;;0.40;0.40;;;;;;;;;;7403064;19;20364;-87
2023/10/22 04:41:10;;;;;;;0.30;0.30;;;;;;;;;;7405067;19;20345;-88
2023/10/22 04:43:37;;;;;;;0.30;0.30;;;;;;;;;;7405813;19;20349;-88
2023/10/22 04:46:04;;;;;;;0.20;0.20;;;;;;;;;;7402787;19;20355;-88
2023/10/22 04:48:32;;;;;;;0.38;0.38;;;;;;;;;;7403741;19;20331;-88
2023/10/22 04:51:07;;;;;;;0.30;0.30;;;;;;;;;;7402593;19;20728;-88
2023/10/22 04:53:34;;;;;;;0.20;0.20;;;;;;;;;;7401093;19;20355;-88
2023/10/22 04:56:01;;;;;;;0.40;0.40;;;;;;;;;;7401231;19;20340;-89
2023/10/22 04:58:29;;;;;;;0.43;0.43;;;;;;;;;;7398093;19;20954;-88
2023/10/22 05:00:57;;;;;;;0.35;0.35;;;;;;;;;;7400444;19;20349;-88
2023/10/22 05:03:24;;;;;;;0.60;0.50;;;;;;;;;;7403260;19;20353;-88
2023/10/22 05:05:51;;;;;;;0.30;0.30;;;;;;;;;;7402642;19;20761;-88
2023/10/22 05:08:20;;;;;;;0.28;0.28;;;;;;;;;;7401518;19;20380;-87
2023/10/22 05:10:47;;;;;;;0.30;0.30;;;;;;;;;;7399249;19;20982;-88
2023/10/22 05:13:14;;;;;;;0.40;0.40;;;;;;;;;;7398986;19;20766;-88
2023/10/22 05:15:49;;;;;;;0.30;0.30;;;;;;;;;;7400793;19;20678;-88
2023/10/22 05:18:16;;;;;;;0.40;0.40;;;;;;;;;;7398878;19;20364;-89
2023/10/22 05:20:43;;;;;;;0.30;0.30;;;;;;;;;;7401251;19;20379;-88
2023/10/22 05:23:10;;;;;;;0.30;0.30;;;;;;;;;;7401686;19;20397;-87
2023/10/22 05:25:39;;;;;;;0.40;0.40;;;;;;;;;;7401909;19;20368;-88
2023/10/22 05:28:15;;;;;;;0.30;0.30;;;;;;;;;;7400461;19;20373;-90
2023/10/22 05:30:42;;;;;;;0.40;0.40;;;;;;;;;;7394159;19;20372;-88
2023/10/22 05:33:09;;;;;;;0.40;0.40;;;;;;;;;;7395181;19;20357;-89
2023/10/22 05:35:36;;;;;;;0.30;0.30;;;;;;;;;;7398867;19;21065;-88
2023/10/22 05:38:03;;;;;;;0.50;0.30;;;;;;;;;;7398316;19;20355;-89
2023/10/22 05:40:35;;;;;;;0.50;0.50;;;;;;;;;;7410941;19;20332;-87
2023/10/22 05:43:03;;;;;;;0.30;0.30;;;;;;;;;;7422723;19;20352;-88
2023/10/22 05:45:30;;;;;;;0.30;0.30;;;;;;;;;;7422817;19;20359;-87
2023/10/22 05:47:57;;;;;;;0.30;0.30;;;;;;;;;;7410959;19;20694;-89
2023/10/22 05:50:25;;;;;;;0.30;0.30;;;;;;;;;;7391333;19;20349;-88
2023/10/22 05:52:52;;;;;;;0.28;0.28;;;;;;;;;;7389808;19;20345;-89
2023/10/22 05:55:19;;;;;;;0.60;0.60;;;;;;;;;;7392722;19;20362;-89
2023/10/22 05:57:46;;;;;;;0.20;0.20;;;;;;;;;;7390029;19;20826;-88
2023/10/22 06:00:14;;;;;;;0.38;0.38;;;;;;;;;;7390420;19;20357;-90
2023/10/22 06:02:40;;;;;;;0.40;0.40;;;;;;;;;;7392076;19;20353;-88
2023/10/22 06:05:08;;;;;;;0.20;0.20;;;;;;;;;;7397262;19;20356;-88
2023/10/22 06:07:50;;;;;;;0.40;0.40;;;;;;;;;;7398776;19;20341;-87
2023/10/22 06:10:18;;;;;;;0.30;0.30;;;;;;;;;;7424036;19;20415;-88
2023/10/22 06:12:49;;;;;;;0.45;0.45;;;;;;;;;;7421477;19;20369;-87
2023/10/22 06:15:16;;;;;;;0.47;0.47;;;;;;;;;;7411484;19;20880;-88
2023/10/22 06:17:44;;;;;;;0.30;0.30;;;;;;;;;;7394139;19;20497;-89
2023/10/22 06:20:12;;;;;;;0.40;0.40;;;;;;;;;;7391637;19;20353;-89
2023/10/22 06:22:39;;;;;;;0.30;0.30;;;;;;;;;;7391338;19;20353;-88
2023/10/22 06:25:06;;;;;;;0.57;0.57;;;;;;;;;;7393022;19;20348;-88
2023/10/22 06:27:34;;;;;;;0.32;0.32;;;;;;;;;;7397310;19;20352;-89
2023/10/22 06:30:01;;;;;;;0.30;0.30;;;;;;;;;;7397954;19;20888;-88
2023/10/22 06:32:28;;;;;;;0.20;0.20;;;;;;;;;;7399075;19;20349;-88
2023/10/22 06:34:55;;;;;;;0.45;0.45;;;;;;;;;;7399738;19;20396;-88
2023/10/22 06:37:22;;;;;;;0.30;0.30;;;;;;;;;;7397398;19;20356;-88
2023/10/22 06:39:51;;;;;;;0.40;0.32;;;;;;;;;;7398242;19;20871;-87
2023/10/22 06:42:18;;;;;;;0.50;0.50;;;;;;;;;;7395606;19;20337;-88
2023/10/22 06:44:45;;;;;;;0.50;0.50;;;;;;;;;;7396428;19;20363;-89
2023/10/22 06:47:50;;;;;;;0.30;0.30;;;;;;;;;;7390099;19;20344;-87
2023/10/22 06:50:27;;;;;;;0.32;0.32;;;;;;;;;;7390180;19;20373;-87
2023/10/22 06:52:57;;;;;;;0.20;0.20;;;;;;;;;;7394147;19;20371;-87
2023/10/22 06:55:41;;;;;;;0.30;0.30;;;;;;;;;;7391302;19;20376;-89
2023/10/22 06:58:23;;;;;;;0.20;0.20;;;;;;;;;;7393726;19;20356;-89
2023/10/22 07:04:22;;;;;;;0.50;0.50;;;;;;;;;;7392475;19;20361;-87
2023/10/22 07:06:49;;;;;;;0.30;0.30;;;;;;;;;;7397561;19;20341;-87
2023/10/22 07:09:16;;;;;;;0.20;0.20;;;;;;;;;;7398420;19;20432;-88
2023/10/22 07:12:20;;;;;;;0.80;0.80;;;;;;;;;;7390474;19;20361;-88
2023/10/22 07:15:33;;;;;;;0.40;0.40;;;;;;;;;;7391022;19;20435;-89
2023/10/22 07:19:05;;;;;;;0.20;0.20;;;;;;;;;;7393135;19;20348;-87
2023/10/22 07:27:23;;;;;;;0.30;0.30;;;;;;;;;;7402996;19;20344;-87
2023/10/22 07:34:10;;;;;;;0.50;0.50;;;;;;;;;;7397229;19;21254;-88
2023/10/22 07:46:04;;;;;;;0.30;0.30;;;;;;;;;;7403673;19;20900;-88
2023/10/22 07:51:52;;;;;;;0.40;0.40;;;;;;;;;;7396173;19;20939;-87
2023/10/22 07:54:34;;;;;;;0.40;0.40;;;;;;;;;;7392036;19;20435;-87
2023/10/22 07:57:25;;;;;;;;;;;;;;;;;;;;;
2023/10/22 08:01:07;;;;;;;0.35;0.35;;;;;;;;;;7403017;19;20379;-86
2023/10/22 08:03:43;;;;;;;0.35;0.35;;;;;;;;;;7412995;19;20353;-93
2023/10/22 08:10:13;;;;;;;;;;;;;;;;;;;;;
2023/10/22 08:13:00;;;;;;;0.70;0.60;;;;;;;;;;7394179;19;20340;-90
2023/10/22 08:48:25;;;;;;;0.30;0.30;;;;;;;;;;7396406;19;20326;-89
2023/10/22 08:57:08;;;;;;;0.40;0.40;;;;;;;;;;7399063;19;20356;-89
2023/10/22 09:04:05;;;;;;;0.40;0.40;;;;;;;;;;7392694;19;20366;-88
2023/10/22 09:25:28;;;;;;;;;;;;;;;;;;;;;
2023/10/22 09:41:25;;;;;;;0.30;0.30;;;;;;;;;;7389132;19;20367;-87
2023/10/22 09:43:59;;;;;;;0.40;0.40;;;;;;;;;;7390593;19;20332;-90
2023/10/22 09:46:33;;;;;;;0.40;0.40;;;;;;;;;;7390829;19;20362;-89
2023/10/22 09:49:09;;;;;;;0.30;0.30;;;;;;;;;;7388415;19;20353;-88
2023/10/22 09:52:06;;;;;;;0.35;0.35;;;;;;;;;;7390937;19;20352;-89
2023/10/22 09:55:21;;;;;;;0.40;0.40;;;;;;;;;;7388851;19;21003;-87
2023/10/22 09:57:49;;;;;;;0.30;0.30;;;;;;;;;;7393301;19;20355;-87
2023/10/22 10:00:17;;;;;;;0.40;0.40;;;;;;;;;;7392815;19;20385;-86
2023/10/22 10:02:57;;;;;;;0.28;0.28;;;;;;;;;;7395341;19;20355;-88
2023/10/22 10:05:30;;;;;;;0.30;0.30;;;;;;;;;;7393715;19;20698;-88
2023/10/22 10:07:56;;;;;;;0.30;0.30;;;;;;;;;;7389631;19;20932;-87
2023/10/22 10:10:34;;;;;;;0.30;0.30;;;;;;;;;;7394558;19;20348;-86
2023/10/22 10:13:08;;;;;;;0.40;0.40;;;;;;;;;;7388743;19;20432;-87
2023/10/22 10:15:40;;;;;;;0.30;0.30;;;;;;;;;;7393604;19;20375;-86
2023/10/22 10:18:08;;;;;;;0.30;0.30;;;;;;;;;;7387854;19;20364;-87
2023/10/22 10:20:41;;;;;;;0.30;0.30;;;;;;;;;;7387792;19;20380;-86
2023/10/22 10:23:18;;;;;;;0.30;0.30;;;;;;;;;;7392734;19;20351;-87
2023/10/22 10:25:47;;;;;;;0.30;0.30;;;;;;;;;;7391164;19;20351;-87
2023/10/22 10:28:14;;;;;;;0.30;0.30;;;;;;;;;;7389589;19;20352;-88
2023/10/22 10:30:41;;;;;;;0.40;0.40;;;;;;;;;;7389558;19;20345;-87
2023/10/22 10:33:09;;;;;;;0.20;0.20;;;;;;;;;;7390708;19;20353;-87
2023/10/22 10:35:48;;;;;;;0.30;0.30;;;;;;;;;;7391318;19;20375;-88
2023/10/22 10:38:24;;;;;;;0.20;0.20;;;;;;;;;;7390976;19;20133;-88
2023/10/22 10:40:53;;;;;;;0.40;0.40;;;;;;;;;;7393973;19;20141;-86
2023/10/22 10:43:59;;;;;;;0.30;0.30;;;;;;;;;;7398194;19;20133;-85
2023/10/22 10:46:27;;;;;;;0.40;0.40;;;;;;;;;;7392880;19;20620;-86
2023/10/22 10:48:54;;;;;;;0.28;0.28;;;;;;;;;;7397258;19;20125;-87
2023/10/22 10:51:24;;;;;;;0.30;0.30;;;;;;;;;;7394613;19;20164;-86
2023/10/22 10:54:00;;;;;;;0.30;0.30;;;;;;;;;;7399618;19;20133;-88
2023/10/22 10:56:47;;;;;;;0.30;0.30;;;;;;;;;;7397274;19;20159;-87
2023/10/22 10:59:34;;;;;;;0.23;0.23;;;;;;;;;;7401816;19;20177;-86
2023/10/22 11:02:06;;;;;;;0.30;0.30;;;;;;;;;;7394951;19;20171;-87
2023/10/22 11:04:46;;;;;;;0.30;0.30;;;;;;;;;;7399699;19;20141;-87
2023/10/22 11:07:14;;;;;;;0.30;0.30;;;;;;;;;;7393781;19;20135;-87
2023/10/22 11:09:44;;;;;;;0.30;0.30;;;;;;;;;;7387448;19;20136;-86
2023/10/22 11:12:14;;;;;;;0.30;0.30;;;;;;;;;;7390166;19;20700;-87
2023/10/22 11:14:41;;;;;;;0.30;0.30;;;;;;;;;;7388073;19;20137;-86
2023/10/22 11:17:09;;;;;;;0.30;0.30;;;;;;;;;;7392861;19;20137;-89
2023/10/22 11:19:35;;;;;;;0.30;0.30;;;;;;;;;;7396620;19;20188;-87
2023/10/22 11:22:03;;;;;;;0.30;0.30;;;;;;;;;;7394605;19;20137;-87
2023/10/22 11:24:33;;;;;;;0.30;0.30;;;;;;;;;;7395205;19;20150;-88
2023/10/22 11:27:03;;;;;;;0.20;0.20;;;;;;;;;;7394140;19;20141;-87
2023/10/22 11:29:43;;;;;;;0.20;0.20;;;;;;;;;;7395410;19;20152;-87
2023/10/22 11:32:13;;;;;;;0.30;0.30;;;;;;;;;;7394348;19;20637;-83
2023/10/22 11:34:53;;;;;;;0.50;0.50;;;;;;;;;;7393875;19;20149;-84
2023/10/22 11:37:45;;;;;;;0.30;0.30;;;;;;;;;;7393413;19;20133;-89
2023/10/22 11:40:31;;;;;;;0.30;0.30;;;;;;;;;;7396119;19;20151;-87
2023/10/22 11:43:04;;;;;;;0.30;0.30;;;;;;;;;;7393012;19;20182;-85
2023/10/22 11:45:37;;;;;;;0.30;0.30;;;;;;;;;;7395020;19;20193;-87
2023/10/22 11:48:13;;;;;;;0.30;0.30;;;;;;;;;;7395423;19;20141;-89
2023/10/22 11:51:04;;;;;;;0.30;0.30;;;;;;;;;;7393458;19;20136;-86
2023/10/22 12:00:47;;;;;;;0.20;0.20;;;;;;;;;;7397986;19;20120;-90
2023/10/22 12:03:16;;;;;;;0.30;0.30;;;;;;;;;;7384182;19;20499;-91
2023/10/22 12:05:43;;;;;;;0.32;0.32;;;;;;;;;;7390676;19;20133;-92
2023/10/22 12:08:39;;;;;;;0.30;0.30;;;;;;;;;;7414358;19;20154;-94
2023/10/22 12:16:38;;;;;;;0.20;0.20;;;;;;;;;;7401036;19;20648;-87
2023/10/22 12:19:05;;;;;;;0.20;0.20;;;;;;;;;;7396505;19;20137;-84
2023/10/22 12:21:32;;;;;;;0.30;0.30;;;;;;;;;;7396461;19;20148;-87
2023/10/22 12:23:59;;;;;;;0.20;0.20;;;;;;;;;;7402089;19;20143;-86
2023/10/22 12:26:38;;;;;;;0.30;0.30;;;;;;;;;;7399910;19;20136;-84
2023/10/22 12:29:05;;;;;;;0.30;0.30;;;;;;;;;;7402283;19;20137;-88
2023/10/22 12:31:32;;;;;;;0.30;0.30;;;;;;;;;;7396585;19;20145;-89
2023/10/22 12:33:59;;;;;;;0.30;0.30;;;;;;;;;;7391900;19;20158;-86
2023/10/22 12:36:26;;;;;;;0.30;0.30;;;;;;;;;;7399728;19;20200;-84
2023/10/22 12:38:54;;;;;;;;;;;;;;;;;;7396356;19;20029;-86
2023/10/22 12:41:21;;;;;;;0.30;0.30;;;;;;;;;;7388333;19;20373;-85
2023/10/22 12:43:49;;;;;;;0.30;0.30;;;;;;;;;;7393988;19;20193;-88
2023/10/22 12:46:17;;;;;;;0.30;0.30;;;;;;;;;;7395193;19;21029;-86
2023/10/22 12:48:44;;;;;;;0.30;0.30;;;;;;;;;;7395822;19;20141;-89
2023/10/22 12:51:11;;;;;;;0.30;0.30;;;;;;;;;;7392799;19;20548;-87
2023/10/22 12:53:38;;;;;;;0.30;0.30;;;;;;;;;;7393571;19;20141;-84
2023/10/22 12:56:05;;;;;;;0.30;0.30;;;;;;;;;;7394789;19;20155;-87
2023/10/22 12:58:31;;;;;;;0.30;0.30;;;;;;;;;;7393221;19;20520;-86
2023/10/22 13:00:59;;;;;;;0.30;0.30;;;;;;;;;;7394536;19;20644;-86
2023/10/22 13:03:30;;;;;;;0.30;0.30;;;;;;;;;;7392730;19;20137;-86
2023/10/22 13:06:04;;;;;;;0.30;0.30;;;;;;;;;;7394465;19;20364;-85
2023/10/22 13:08:31;;;;;;;0.30;0.30;;;;;;;;;;7392999;19;20129;-85
2023/10/22 13:10:59;;;;;;;0.30;0.30;;;;;;;;;;7394946;19;20149;-84
2023/10/22 13:13:26;;;;;;;0.30;0.30;;;;;;;;;;7393242;19;20643;-85
2023/10/22 13:15:54;;;;;;;0.30;0.30;;;;;;;;;;7394830;19;20156;-85
2023/10/22 13:18:21;;;;;;;0.30;0.30;;;;;;;;;;7391433;19;20644;-84
2023/10/22 13:20:48;;;;;;;0.32;0.32;;;;;;;;;;7394861;19;20136;-86
2023/10/22 13:23:17;;;;;;;0.30;0.30;;;;;;;;;;7397647;19;20147;-87
2023/10/22 13:26:04;;;;;;;0.30;0.30;;;;;;;;;;7395105;19;20676;-88
2023/10/22 13:28:32;;;;;;;0.30;0.30;;;;;;;;;;7391164;19;20148;-87
2023/10/22 13:30:59;;;;;;;0.28;0.28;;;;;;;;;;7395052;19;20152;-87
2023/10/22 13:33:26;;;;;;;0.30;0.30;;;;;;;;;;7393478;19;20744;-87
2023/10/22 13:35:55;;;;;;;0.35;0.35;;;;;;;;;;7390626;19;20940;-86
2023/10/22 13:39:00;;;;;;;0.30;0.30;;;;;;;;;;7392412;19;20382;-91
2023/10/22 13:41:40;;;;;;;0.20;0.20;;;;;;;;;;7391934;19;20655;-89
2023/10/22 13:44:37;;;;;;;;;;;;;;;;;;;;;
2023/10/22 13:47:10;;;;;;;0.30;0.30;;;;;;;;;;7395291;19;20884;-91
2023/10/22 13:50:14;;;;;;;0.40;0.40;;;;;;;;;;7391325;19;20437;-92
2023/10/22 13:52:45;;;;;;;0.20;0.20;;;;;;;;;;7390565;19;20384;-89
2023/10/22 13:59:14;;;;;;;0.20;0.20;;;;;;;;;;7388997;19;20352;-90
2023/10/22 14:01:47;;;;;;;0.40;0.40;;;;;;;;;;7392036;19;20349;-88
2023/10/22 14:04:14;;;;;;;0.30;0.30;;;;;;;;;;7396808;19;20344;-91
2023/10/22 14:10:34;;;;;;;0.40;0.40;;;;;;;;;;7389784;19;20356;-90
2023/10/22 14:13:00;;;;;;;0.40;0.40;;;;;;;;;;7389279;19;20366;-91
2023/10/22 14:15:33;;;;;;;0.40;0.40;;;;;;;;;;7388988;19;20379;-91
2023/10/22 14:18:08;;;;;;;4.10;1.20;;;;;;;;;;7389066;19;20361;-91
2023/10/22 14:20:35;;;;;;;0.40;0.40;;;;;;;;;;7386962;19;20381;-89
2023/10/22 14:23:01;;;;;;;0.30;0.30;;;;;;;;;;7388624;19;20344;-92
2023/10/22 14:25:28;;;;;;;0.30;0.30;;;;;;;;;;7390335;19;20365;-92
2023/10/22 14:27:55;;;;;;;0.40;0.40;;;;;;;;;;7390438;19;20372;-91
2023/10/22 14:30:22;;;;;;;0.30;0.30;;;;;;;;;;7392966;19;20329;-89
2023/10/22 14:32:49;;;;;;;0.30;0.30;;;;;;;;;;7389801;19;20349;-91
2023/10/22 14:35:16;;;;;;;0.30;0.30;;;;;;;;;;7390623;19;20359;-89
2023/10/22 14:37:43;;;;;;;0.30;0.30;;;;;;;;;;7387015;19;20424;-91
2023/10/22 14:40:10;;;;;;;0.60;0.60;;;;;;;;;;7392702;19;20817;-90
2023/10/22 14:42:36;;;;;;;0.40;0.40;;;;;;;;;;7389607;19;20345;-91
2023/10/22 14:45:04;;;;;;;0.50;0.50;;;;;;;;;;7392291;19;20352;-92
2023/10/22 14:47:31;;;;;;;0.30;0.30;;;;;;;;;;7391068;19;20420;-91
2023/10/22 14:49:57;;;;;;;0.35;0.35;;;;;;;;;;7389576;19;20357;-91
2023/10/22 14:52:24;;;;;;;0.30;0.30;;;;;;;;;;7393556;19;20384;-90
2023/10/22 14:54:52;;;;;;;0.40;0.40;;;;;;;;;;7397055;19;20370;-90
2023/10/22 14:57:19;;;;;;;0.30;0.30;;;;;;;;;;7395114;19;20372;-90
2023/10/22 14:59:46;;;;;;;0.45;0.45;;;;;;;;;;7393058;19;20353;-91
2023/10/22 15:02:13;;;;;;;0.20;0.20;;;;;;;;;;7390165;19;20360;-90
2023/10/22 15:04:40;;;;;;;0.20;0.20;;;;;;;;;;7390922;19;20452;-90
2023/10/22 15:07:07;;;;;;;0.25;0.25;;;;;;;;;;7389106;19;20380;-90
2023/10/22 15:09:34;;;;;;;2.53;2.33;;;;;;;;;;7391805;19;20942;-91
2023/10/22 15:12:01;;;;;;;2.22;1.98;;;;;;;;;;7388022;19;20361;-91
2023/10/22 15:14:28;;;;;;;;;;;;;;;;;;7393449;19;20885;-89
2023/10/22 15:16:55;;;;;;;;;;;;;;;;;;7396264;19;19978;-90
2023/10/22 15:19:22;;;;;;;;;;;;;;;;;;7395503;19;19927;-90
2023/10/22 15:21:48;;;;;;;;;;;;;;;;;;7393900;19;20325;-90
2023/10/22 15:24:15;;;;;;;;;;;;;;;;;;7395830;19;19921;-90
2023/10/22 15:26:41;;;;;;;;;;;;;;;;;;7397620;19;19950;-91
2023/10/22 15:29:08;;;;;;;;;;;;;;;;;;7393920;19;19926;-90
2023/10/22 15:31:35;;;;;;;;;;;;;;;;;;7392491;19;20001;-90
2023/10/22 15:34:02;;;;;;;0.30;0.30;;;;;;;;;;7392624;19;20187;-90
2023/10/22 15:36:29;;;;;;;0.20;0.20;;;;;;;;;;7396097;19;20661;-90
2023/10/22 15:38:55;;;;;;;0.30;0.30;;;;;;;;;;7393876;19;20137;-90
2023/10/22 15:41:22;;;;;;;0.20;0.20;;;;;;;;;;7396460;19;20141;-90
2023/10/22 15:43:49;;;;;;;0.30;0.30;;;;;;;;;;7395019;19;20217;-90
2023/10/22 15:46:20;;;;;;;0.30;0.30;;;;;;;;;;7397526;19;20177;-90
2023/10/22 15:48:48;;;;;;;0.30;0.30;;;;;;;;;;7402875;19;20216;-90
2023/10/22 15:51:19;;;;;;;0.22;0.22;;;;;;;;;;7402255;19;20153;-90
2023/10/22 15:53:47;;;;;;;0.30;0.30;;;;;;;;;;7398788;19;20512;-91
2023/10/22 15:56:14;;;;;;;0.30;0.30;;;;;;;;;;7400735;19;20294;-91
2023/10/22 15:58:44;;;;;;;0.30;0.30;;;;;;;;;;7395590;19;20133;-90
2023/10/22 16:01:21;;;;;;;0.30;0.30;;;;;;;;;;7395572;19;20185;-93
2023/10/22 16:03:54;;;;;;;0.30;0.30;;;;;;;;;;7400293;19;20143;-91
2023/10/22 16:06:21;;;;;;;0.30;0.30;;;;;;;;;;7399309;19;20137;-91
2023/10/22 16:08:51;;;;;;;0.20;0.20;;;;;;;;;;7398033;19;20625;-92
2023/10/22 16:11:18;;;;;;;0.30;0.30;;;;;;;;;;7395982;19;20160;-89
2023/10/22 16:13:45;;;;;;;0.30;0.30;;;;;;;;;;7393285;19;20141;-90
2023/10/22 16:16:11;;;;;;;0.30;0.30;;;;;;;;;;7392089;19;20154;-90
2023/10/22 16:18:38;;;;;;;0.30;0.30;;;;;;;;;;7393997;19;20137;-90
2023/10/22 16:21:05;;;;;;;0.30;0.30;;;;;;;;;;7394087;19;20667;-91
2023/10/22 16:23:32;;;;;;;0.40;0.40;;;;;;;;;;7395232;19;20594;-91
2023/10/22 16:25:59;;;;;;;0.20;0.20;;;;;;;;;;7398423;19;20166;-91
2023/10/22 16:28:25;;;;;;;0.30;0.30;;;;;;;;;;7401213;19;20200;-91
2023/10/22 16:30:55;;;;;;;0.60;0.60;;;;;;;;;;7400033;19;20156;-91
2023/10/22 16:33:22;;;;;;;0.30;0.30;;;;;;;;;;7396655;19;20117;-90
2023/10/22 16:35:49;;;;;;;0.40;0.40;;;;;;;;;;7396551;19;20141;-91
2023/10/22 16:38:16;;;;;;;0.20;0.20;;;;;;;;;;7397803;19;20158;-91
2023/10/22 16:40:42;;;;;;;0.57;0.57;;;;;;;;;;7398393;19;20392;-91
2023/10/22 16:43:09;;;;;;;0.60;0.60;;;;;;;;;;7398168;19;20767;-91
2023/10/22 16:45:37;;;;;;;1.10;0.60;;;;;;;;;;7399597;19;20417;-90
2023/10/22 16:48:04;;;;;;;0.70;0.60;;;;;;;;;;7398390;19;20333;-90
2023/10/22 16:50:31;;;;;;;0.50;0.50;;;;;;;;;;7397501;19;21025;-91
2023/10/22 16:52:57;;;;;;;0.60;0.60;;;;;;;;;;7393538;19;20424;-90
2023/10/22 16:55:24;;;;;;;1.00;0.85;;;;;;;;;;7394688;19;20353;-90
2023/10/22 16:57:51;;;;;;;0.52;0.52;;;;;;;;;;7394279;19;20337;-89
2023/10/22 17:00:18;;;;;;;0.47;0.47;;;;;;;;;;7395073;19;20368;-90
2023/10/22 17:02:47;;;;;;;0.93;0.93;;;;;;;;;;7394192;19;20365;-90
2023/10/22 17:05:14;;;;;;;1.02;0.93;;;;;;;;;;7394177;19;20352;-90
2023/10/22 17:07:41;;;;;;;0.30;0.30;;;;;;;;;;7399695;19;20372;-90
2023/10/22 17:10:11;;;;;;;0.70;0.70;;;;;;;;;;7398416;19;20371;-90
2023/10/22 17:12:38;;;;;;;0.85;0.85;;;;;;;;;;7399651;19;20339;-91
2023/10/22 17:15:06;;;;;;;0.50;0.50;;;;;;;;;;7398323;19;20361;-91
2023/10/22 17:17:34;;;;;;;0.85;0.82;;;;;;;;;;7396062;19;20719;-90
2023/10/22 17:20:03;;;;;;;0.80;0.80;;;;;;;;;;7394730;19;20357;-90
2023/10/22 17:22:30;;;;;;;0.90;0.65;;;;;;;;;;7396230;19;20360;-90
2023/10/22 17:24:57;;;;;;;0.60;0.60;;;;;;;;;;7396596;19;20356;-90
2023/10/22 17:27:25;;;;;;;0.50;0.50;;;;;;;;;;7393458;19;20359;-91
2023/10/22 17:29:53;;;;;;;0.70;0.70;;;;;;;;;;7391902;19;20349;-91
2023/10/22 17:32:21;;;;;;;1.00;0.95;;;;;;;;;;7394689;19;20360;-90
2023/10/22 17:34:47;;;;;;;2.50;1.40;;;;;;;;;;7392983;19;20364;-90
2023/10/22 17:37:14;;;;;;;1.00;0.85;;;;;;;;;;7394075;19;20427;-93
2023/10/22 17:39:41;;;;;;;0.70;0.70;;;;;;;;;;7392757;19;20348;-91
2023/10/22 17:42:10;;;;;;;0.57;0.57;;;;;;;;;;7390473;19;20860;-91
2023/10/22 17:44:38;;;;;;;0.60;0.60;;;;;;;;;;7394311;19;20337;-90
2023/10/22 17:47:06;;;;;;;0.80;0.80;;;;;;;;;;7396882;19;20360;-91
2023/10/22 17:49:34;;;;;;;0.70;0.70;;;;;;;;;;7399023;19;20344;-90
2023/10/22 17:52:02;;;;;;;0.93;0.40;;;;;;;;;;7398444;19;20759;-91
2023/10/22 17:54:29;;;;;;;0.60;0.60;;;;;;;;;;7398547;19;20387;-91
2023/10/22 17:56:56;;;;;;;0.43;0.43;;;;;;;;;;7396090;19;20352;-91
2023/10/22 17:59:23;;;;;;;1.00;1.00;;;;;;;;;;7397035;19;20365;-89
2023/10/22 18:01:50;;;;;;;0.40;0.40;;;;;;;;;;7397164;19;20883;-91